createdAt,value
2022-11-27T00:01:31.346Z,98929.59
2022-11-27T00:03:59.121Z,98927.81
2022-11-27T00:06:27.342Z,98918.78
2022-11-27T00:09:00.728Z,98915.66
2022-11-27T00:11:29.605Z,98915.00
2022-11-27T00:13:57.787Z,98901.66
2022-11-27T00:16:27.535Z,98910.31
2022-11-27T00:18:54.635Z,98910.00
2022-11-27T00:21:27.569Z,98904.75
2022-11-27T00:23:57.734Z,98903.19
2022-11-27T00:26:33.074Z,98894.84
2022-11-27T00:29:05.999Z,98892.06
2022-11-27T00:31:37.451Z,98890.06
2022-11-27T00:34:07.444Z,98875.34
2022-11-27T00:36:35.446Z,98879.03
2022-11-27T00:39:02.596Z,98876.25
2022-11-27T00:41:31.129Z,98874.69
2022-11-27T00:43:58.887Z,98869.13
2022-11-27T00:46:29.307Z,98864.78
2022-11-27T00:49:02.297Z,98866.34
2022-11-27T00:51:31.142Z,98863.13
2022-11-27T00:53:59.019Z,98867.00
2022-11-27T00:56:32.767Z,98871.34
2022-11-27T00:58:59.973Z,98880.47
2022-11-27T01:01:39.464Z,98887.16
2022-11-27T01:04:08.291Z,98892.72
2022-11-27T01:06:35.569Z,98887.16
2022-11-27T01:09:03.088Z,98891.38
2022-11-27T01:11:33.068Z,98888.03
2022-11-27T01:14:06.200Z,98883.47
2022-11-27T01:16:34.000Z,98882.16
2022-11-27T01:19:02.266Z,98871.31
2022-11-27T01:21:32.610Z,98862.41
2022-11-27T01:24:00.840Z,98867.06
2022-11-27T01:26:28.133Z,98867.84
2022-11-27T01:28:56.853Z,98861.06
2022-11-27T01:31:27.582Z,98859.06
2022-11-27T01:33:58.010Z,98848.56
2022-11-27T01:36:25.697Z,98848.00
2022-11-27T01:38:52.641Z,98848.31
2022-11-27T01:41:23.147Z,98837.97
2022-11-27T01:44:22.031Z,98835.28
2022-11-27T01:46:57.112Z,98838.22
2022-11-27T01:49:33.281Z,98830.63
2022-11-27T01:52:22.514Z,98827.50
2022-11-27T01:54:55.416Z,98840.22
2022-11-27T01:57:29.220Z,98841.78
2022-11-27T01:59:59.930Z,98843.66
2022-11-27T02:02:26.904Z,98831.59
2022-11-27T02:04:55.562Z,98828.38
2022-11-27T02:07:22.636Z,98820.81
2022-11-27T02:09:50.700Z,98815.34
2022-11-27T02:12:32.270Z,98815.16
2022-11-27T02:15:26.621Z,98812.16
2022-11-27T02:18:13.455Z,98811.50
2022-11-27T02:20:52.871Z,98806.38
2022-11-27T02:23:44.444Z,98808.38
2022-11-27T02:26:23.265Z,98806.38
2022-11-27T02:28:56.427Z,98811.94
2022-11-27T02:31:30.305Z,98816.88
2022-11-27T02:34:05.905Z,98814.09
2022-11-27T02:36:35.517Z,98814.09
2022-11-27T02:39:08.073Z,98812.19
2022-11-27T02:42:00.647Z,98815.09
2022-11-27T02:44:33.348Z,98811.78
2022-11-27T02:47:01.175Z,98818.22
2022-11-27T02:49:28.523Z,98811.66
2022-11-27T02:51:59.685Z,98809.44
2022-11-27T02:54:30.465Z,98806.31
2022-11-27T02:57:01.149Z,98813.13
2022-11-27T02:59:31.591Z,98809.69
2022-11-27T03:02:06.998Z,98819.25
2022-11-27T03:04:41.008Z,98815.25
2022-11-27T03:07:18.257Z,98818.91
2022-11-27T03:09:51.353Z,98825.69
2022-11-27T03:12:19.592Z,98827.91
2022-11-27T03:14:48.334Z,98814.00
2022-11-27T03:17:31.863Z,98813.66
2022-11-27T03:20:10.844Z,98824.00
2022-11-27T03:22:38.052Z,98813.78
2022-11-27T03:25:05.354Z,98803.41
2022-11-27T03:27:37.407Z,98800.94
2022-11-27T03:30:09.610Z,98797.59
2022-11-27T03:32:37.697Z,98792.03
2022-11-27T03:35:09.786Z,98792.94
2022-11-27T03:37:37.543Z,98799.72
2022-11-27T03:40:06.403Z,98791.81
2022-11-27T03:42:56.272Z,98784.59
2022-11-27T03:45:57.209Z,98780.22
2022-11-27T03:48:32.761Z,98785.59
2022-11-27T03:51:01.072Z,98782.91
2022-11-27T03:54:00.923Z,98780.69
2022-11-27T03:56:36.362Z,98776.59
2022-11-27T03:59:06.243Z,98775.38
2022-11-27T04:01:33.456Z,98780.94
2022-11-27T04:04:01.318Z,98775.50
2022-11-27T04:06:28.706Z,98780.41
2022-11-27T04:08:55.624Z,98777.41
2022-11-27T04:11:22.902Z,98785.09
2022-11-27T04:13:52.328Z,98785.53
2022-11-27T04:16:19.997Z,98787.22
2022-11-27T04:18:46.916Z,98784.09
2022-11-27T04:21:14.494Z,98770.63
2022-11-27T04:23:41.450Z,98773.84
2022-11-27T04:26:08.639Z,98777.19
2022-11-27T04:28:35.875Z,98767.50
2022-11-27T04:31:02.856Z,98768.72
2022-11-27T04:33:29.913Z,98763.16
2022-11-27T04:35:56.838Z,98759.94
2022-11-27T04:38:23.883Z,98755.16
2022-11-27T04:40:53.858Z,98761.16
2022-11-27T04:43:20.861Z,98761.03
2022-11-27T04:45:47.678Z,98770.81
2022-11-27T04:48:14.701Z,98761.81
2022-11-27T04:50:41.805Z,98772.50
2022-11-27T04:53:08.864Z,98785.66
2022-11-27T04:55:35.927Z,98779.31
2022-11-27T04:58:02.861Z,98787.09
2022-11-27T05:00:29.797Z,98788.84
2022-11-27T05:02:56.886Z,98771.84
2022-11-27T05:05:23.897Z,98780.63
2022-11-27T05:07:51.028Z,98785.97
2022-11-27T05:10:19.169Z,98784.28
2022-11-27T05:12:46.445Z,98777.16
2022-11-27T05:15:13.292Z,98779.50
2022-11-27T05:17:40.237Z,98777.03
2022-11-27T05:20:07.894Z,98786.63
2022-11-27T05:22:34.831Z,98774.72
2022-11-27T05:25:02.907Z,98771.94
2022-11-27T05:27:29.819Z,98766.81
2022-11-27T05:29:56.821Z,98766.69
2022-11-27T05:32:23.668Z,98770.13
2022-11-27T05:34:50.703Z,98760.91
2022-11-27T05:37:19.890Z,98756.00
2022-11-27T05:39:47.091Z,98752.75
2022-11-27T05:42:14.277Z,98752.66
2022-11-27T05:44:41.237Z,98753.59
2022-11-27T05:47:08.333Z,98756.38
2022-11-27T05:49:35.507Z,98756.88
2022-11-27T05:52:02.643Z,98748.50
2022-11-27T05:54:29.775Z,98751.72
2022-11-27T05:56:57.342Z,98755.31
2022-11-27T05:59:24.332Z,98756.66
2022-11-27T06:01:51.425Z,98757.88
2022-11-27T06:04:18.687Z,98760.78
2022-11-27T06:06:45.722Z,98757.78
2022-11-27T06:09:13.779Z,98746.88
2022-11-27T06:11:42.734Z,98749.31
2022-11-27T06:14:11.079Z,98745.44
2022-11-27T06:16:38.751Z,98747.09
2022-11-27T06:19:05.833Z,98748.78
2022-11-27T06:21:33.852Z,98746.13
2022-11-27T06:24:00.966Z,98748.91
2022-11-27T06:26:30.162Z,98749.56
2022-11-27T06:28:59.334Z,98737.53
2022-11-27T06:31:29.611Z,98731.97
2022-11-27T06:33:58.008Z,98735.53
2022-11-27T06:36:29.980Z,98738.97
2022-11-27T06:38:57.233Z,98733.41
2022-11-27T06:41:27.220Z,98723.41
2022-11-27T06:43:55.426Z,98731.75
2022-11-27T06:46:24.367Z,98722.06
2022-11-27T06:48:53.098Z,98724.09
2022-11-27T06:51:23.336Z,98722.41
2022-11-27T06:53:51.045Z,98717.75
2022-11-27T06:56:20.174Z,98717.75
2022-11-27T06:58:50.632Z,98714.50
2022-11-27T07:01:18.227Z,98701.91
2022-11-27T07:03:45.359Z,98709.19
2022-11-27T07:06:15.328Z,98707.41
2022-11-27T07:08:42.624Z,98713.53
2022-11-27T07:11:19.451Z,98721.53
2022-11-27T07:13:47.928Z,98713.75
2022-11-27T07:16:16.527Z,98714.53
2022-11-27T07:18:47.477Z,98710.53
2022-11-27T07:21:15.010Z,98707.22
2022-11-27T07:23:44.379Z,98704.88
2022-11-27T07:26:17.818Z,98709.66
2022-11-27T07:28:46.537Z,98698.78
2022-11-27T07:31:16.619Z,98701.22
2022-11-27T07:33:43.768Z,98696.09
2022-11-27T07:36:16.496Z,98689.78
2022-11-27T07:38:45.249Z,98698.44
2022-11-27T07:41:13.613Z,98696.00
2022-11-27T07:43:42.519Z,98684.66
2022-11-27T07:46:16.409Z,98698.88
2022-11-27T07:48:43.863Z,98701.31
2022-11-27T07:51:13.938Z,98698.88
2022-11-27T07:53:43.100Z,98692.97
2022-11-27T07:56:12.279Z,98703.00
2022-11-27T07:58:40.484Z,98684.22
2022-11-27T08:01:10.566Z,98699.88
2022-11-27T08:03:38.184Z,98690.44
2022-11-27T08:06:21.511Z,98697.44
2022-11-27T08:08:50.936Z,98704.53
2022-11-27T08:11:29.918Z,98698.97
2022-11-27T08:14:03.028Z,98701.31
2022-11-27T08:16:31.649Z,98698.88
2022-11-27T08:18:58.934Z,98686.19
2022-11-27T08:21:30.470Z,98679.06
2022-11-27T08:23:58.497Z,98673.72
2022-11-27T08:26:27.822Z,98673.59
2022-11-27T08:28:57.492Z,98662.69
2022-11-27T08:31:25.700Z,98674.47
2022-11-27T08:33:52.625Z,98668.78
2022-11-27T08:36:19.875Z,98667.09
2022-11-27T08:38:47.716Z,98674.88
2022-11-27T08:41:15.346Z,98667.97
2022-11-27T08:43:42.947Z,98663.38
2022-11-27T08:46:10.474Z,98675.13
2022-11-27T08:48:37.743Z,98669.28
2022-11-27T08:51:11.153Z,98673.41
2022-11-27T08:53:39.340Z,98666.78
2022-11-27T08:56:14.139Z,98665.88
2022-11-27T08:58:41.388Z,98662.06
2022-11-27T09:01:14.147Z,98658.56
2022-11-27T09:03:41.574Z,98666.00
2022-11-27T09:06:16.284Z,98663.56
2022-11-27T09:08:44.531Z,98660.78
2022-11-27T09:11:12.787Z,98656.41
2022-11-27T09:13:41.173Z,98663.56
2022-11-27T09:16:15.220Z,98657.66
2022-11-27T09:18:44.787Z,98664.78
2022-11-27T09:21:13.276Z,98663.88
2022-11-27T09:23:40.909Z,98663.41
2022-11-27T09:26:11.334Z,98660.19
2022-11-27T09:28:39.239Z,98659.91
2022-11-27T09:31:09.748Z,98654.97
2022-11-27T09:33:38.555Z,98661.78
2022-11-27T09:36:21.742Z,98663.47
2022-11-27T09:38:49.329Z,98660.81
2022-11-27T09:41:40.723Z,98666.97
2022-11-27T09:44:22.506Z,98673.00
2022-11-27T09:46:50.890Z,98660.44
2022-11-27T09:49:25.924Z,98655.66
2022-11-27T09:52:11.087Z,98655.19
2022-11-27T09:54:47.988Z,98640.22
2022-11-27T09:57:47.735Z,98636.84
2022-11-27T10:00:18.822Z,98623.19
2022-11-27T10:02:46.457Z,98638.69
2022-11-27T10:05:29.220Z,98644.16
2022-11-27T10:08:22.230Z,98642.13
2022-11-27T10:11:34.874Z,98642.91
2022-11-27T10:14:32.340Z,98631.25
2022-11-27T10:17:15.901Z,98632.97
2022-11-27T10:19:54.140Z,98630.63
2022-11-27T10:22:27.474Z,98627.41
2022-11-27T10:25:25.009Z,98616.09
2022-11-27T10:27:59.593Z,98620.34
2022-11-27T10:30:29.848Z,98614.63
2022-11-27T10:32:59.596Z,98616.06
2022-11-27T10:35:30.144Z,98607.09
2022-11-27T10:38:07.081Z,98599.03
2022-11-27T10:41:04.046Z,98589.13
2022-11-27T10:43:31.135Z,98582.31
2022-11-27T10:46:05.263Z,98577.84
2022-11-27T10:48:33.467Z,98566.84
2022-11-27T10:51:00.623Z,98561.25
2022-11-27T10:53:33.896Z,98560.63
2022-11-27T10:56:03.474Z,98545.47
2022-11-27T10:58:40.119Z,98538.34
2022-11-27T11:01:13.909Z,98538.19
2022-11-27T11:03:41.274Z,98532.91
2022-11-27T11:06:26.544Z,98538.03
2022-11-27T11:09:06.228Z,98527.03
2022-11-27T11:11:33.192Z,98525.31
2022-11-27T11:14:00.080Z,98510.13
2022-11-27T11:16:35.165Z,98527.47
2022-11-27T11:19:03.094Z,98531.19
2022-11-27T11:21:41.659Z,98525.16
2022-11-27T11:24:22.828Z,98525.78
2022-11-27T11:26:52.888Z,98519.13
2022-11-27T11:29:26.964Z,98518.16
2022-11-27T11:31:56.940Z,98520.66
2022-11-27T11:34:29.328Z,98514.16
2022-11-27T11:37:02.232Z,98521.13
2022-11-27T11:39:39.544Z,98518.03
2022-11-27T11:42:11.888Z,98508.56
2022-11-27T11:44:40.556Z,98501.94
2022-11-27T11:47:18.299Z,98502.25
2022-11-27T11:49:46.650Z,98498.53
2022-11-27T11:52:35.917Z,98491.25
2022-11-27T11:55:13.440Z,98481.66
2022-11-27T11:57:49.334Z,98470.97
2022-11-27T12:00:19.241Z,98466.16
2022-11-27T12:02:48.769Z,98463.38
2022-11-27T12:05:15.634Z,98456.88
2022-11-27T12:08:19.998Z,98455.31
2022-11-27T12:11:16.410Z,98468.03
2022-11-27T12:13:57.965Z,98466.34
2022-11-27T12:16:43.695Z,98471.44
2022-11-27T12:19:25.929Z,98479.19
2022-11-27T12:22:14.106Z,98464.00
2022-11-27T12:24:51.203Z,98481.69
2022-11-27T12:27:29.215Z,98477.34
2022-11-27T12:30:17.947Z,98466.03
2022-11-27T12:33:15.309Z,98465.09
2022-11-27T12:35:51.898Z,98458.75
2022-11-27T12:38:48.396Z,98456.44
2022-11-27T12:41:52.142Z,98437.97
2022-11-27T12:44:35.613Z,98430.56
2022-11-27T12:47:16.806Z,98429.94
2022-11-27T12:49:56.904Z,98422.19
2022-11-27T12:52:44.848Z,98413.81
2022-11-27T12:55:18.869Z,98415.50
2022-11-27T12:57:58.129Z,98420.34
2022-11-27T13:00:30.884Z,98420.00
2022-11-27T13:03:20.392Z,98420.47
2022-11-27T13:05:53.864Z,98416.00
2022-11-27T13:08:29.866Z,98417.84
2022-11-27T13:11:02.848Z,98407.78
2022-11-27T13:14:03.495Z,98403.88
2022-11-27T13:16:36.939Z,98407.16
2022-11-27T13:19:22.790Z,98401.41
2022-11-27T13:21:52.555Z,98403.59
2022-11-27T13:24:21.829Z,98391.34
2022-11-27T13:26:53.102Z,98396.47
2022-11-27T13:29:45.470Z,98397.38
2022-11-27T13:32:23.126Z,98412.56
2022-11-27T13:34:56.904Z,98396.00
2022-11-27T13:37:32.010Z,98390.88
2022-11-27T13:40:06.784Z,98387.16
2022-11-27T13:42:37.175Z,98379.56
2022-11-27T13:45:11.558Z,98375.25
2022-11-27T13:47:44.789Z,98360.03
2022-11-27T13:50:16.912Z,98359.31
2022-11-27T13:53:00.249Z,98367.66
2022-11-27T13:55:31.062Z,98356.50
2022-11-27T13:58:01.063Z,98358.03
2022-11-27T14:00:46.315Z,98365.59
2022-11-27T14:03:26.083Z,98351.53
2022-11-27T14:05:53.889Z,98343.00
2022-11-27T14:08:30.862Z,98344.09
2022-11-27T14:11:00.875Z,98346.88
2022-11-27T14:13:50.137Z,98336.03
2022-11-27T14:16:38.632Z,98344.25
2022-11-27T14:19:26.340Z,98346.13
2022-11-27T14:21:56.933Z,98346.88
2022-11-27T14:24:35.868Z,98349.03
2022-11-27T14:27:17.976Z,98350.91
2022-11-27T14:29:48.462Z,98342.56
2022-11-27T14:32:19.846Z,98356.63
2022-11-27T14:34:50.836Z,98345.97
2022-11-27T14:37:24.821Z,98355.25
2022-11-27T14:39:53.227Z,98345.66
2022-11-27T14:42:29.282Z,98341.78
2022-11-27T14:45:15.454Z,98343.19
2022-11-27T14:47:55.225Z,98332.03
2022-11-27T14:50:23.118Z,98330.78
2022-11-27T14:52:58.945Z,98330.66
2022-11-27T14:55:33.067Z,98325.09
2022-11-27T14:58:02.411Z,98318.13
2022-11-27T15:00:30.279Z,98314.06
2022-11-27T15:03:08.743Z,98305.41
2022-11-27T15:05:38.504Z,98314.41
2022-11-27T15:08:09.830Z,98321.53
2022-11-27T15:10:41.556Z,98319.97
2022-11-27T15:13:21.970Z,98312.84
2022-11-27T15:16:01.459Z,98298.91
2022-11-27T15:18:31.212Z,98296.56
2022-11-27T15:20:58.972Z,98296.91
2022-11-27T15:23:34.408Z,98289.31
2022-11-27T15:26:16.030Z,98281.91
2022-11-27T15:28:52.809Z,98279.56
2022-11-27T15:31:30.879Z,98271.97
2022-11-27T15:34:05.376Z,98270.88
2022-11-27T15:36:43.956Z,98274.44
2022-11-27T15:39:49.225Z,98274.94
2022-11-27T15:42:17.770Z,98263.47
2022-11-27T15:44:46.463Z,98266.41
2022-11-27T15:47:35.245Z,98256.81
2022-11-27T15:50:03.292Z,98256.50
2022-11-27T15:52:30.693Z,98253.72
2022-11-27T15:54:58.935Z,98238.72
2022-11-27T15:57:26.554Z,98234.53
2022-11-27T15:59:53.470Z,98238.56
2022-11-27T16:02:20.402Z,98226.03
2022-11-27T16:04:47.512Z,98225.25
2022-11-27T16:07:14.943Z,98234.53
2022-11-27T16:09:43.159Z,98220.63
2022-11-27T16:12:10.188Z,98215.34
2022-11-27T16:14:37.085Z,98219.38
2022-11-27T16:17:05.141Z,98211.47
2022-11-27T16:19:33.273Z,98205.13
2022-11-27T16:22:01.265Z,98200.78
2022-11-27T16:24:29.445Z,98187.97
2022-11-27T16:26:56.318Z,98186.88
2022-11-27T16:29:24.639Z,98188.59
2022-11-27T16:31:52.463Z,98171.09
2022-11-27T16:34:23.585Z,98176.50
2022-11-27T16:36:51.560Z,98176.66
2022-11-27T16:39:18.481Z,98160.59
2022-11-27T16:41:45.524Z,98156.25
2022-11-27T16:44:15.525Z,98155.94
2022-11-27T16:46:44.852Z,98161.69
2022-11-27T16:49:13.631Z,98157.97
2022-11-27T16:51:41.721Z,98143.28
2022-11-27T16:54:13.697Z,98151.94
2022-11-27T16:56:42.893Z,98151.63
2022-11-27T16:59:11.960Z,98154.41
2022-11-27T17:01:41.334Z,98159.19
2022-11-27T17:04:10.381Z,98162.31
2022-11-27T17:06:38.931Z,98162.59
2022-11-27T17:09:08.513Z,98165.25
2022-11-27T17:11:38.179Z,98165.09
2022-11-27T17:14:07.693Z,98157.03
2022-11-27T17:16:37.128Z,98160.13
2022-11-27T17:19:04.711Z,98167.69
2022-11-27T17:21:34.394Z,98163.69
2022-11-27T17:24:04.236Z,98163.69
2022-11-27T17:26:38.926Z,98144.66
2022-11-27T17:29:05.910Z,98150.06
2022-11-27T17:31:35.649Z,98161.81
2022-11-27T17:34:05.057Z,98157.63
2022-11-27T17:36:37.237Z,98143.22
2022-11-27T17:39:06.535Z,98149.88
2022-11-27T17:41:35.311Z,98143.84
2022-11-27T17:44:06.043Z,98144.63
2022-11-27T17:46:34.648Z,98143.84
2022-11-27T17:49:05.602Z,98142.91
2022-11-27T17:51:36.493Z,98138.88
2022-11-27T17:54:04.412Z,98122.78
2022-11-27T17:56:32.554Z,98122.34
2022-11-27T17:59:02.769Z,98112.88
2022-11-27T18:01:31.132Z,98123.41
2022-11-27T18:04:04.196Z,98116.31
2022-11-27T18:06:32.212Z,98117.81
2022-11-27T18:09:03.362Z,98113.19
2022-11-27T18:11:33.916Z,98116.00
2022-11-27T18:14:01.286Z,98111.03
2022-11-27T18:16:36.742Z,98106.09
2022-11-27T18:19:09.180Z,98087.22
2022-11-27T18:21:37.015Z,98086.00
2022-11-27T18:27:08.205Z,98084.16
2022-11-27T18:29:37.974Z,98084.16
2022-11-27T18:32:06.418Z,98082.00
2022-11-27T18:34:33.818Z,98075.19
2022-11-27T18:37:01.005Z,98076.75
2022-11-27T18:39:29.203Z,98072.44
2022-11-27T18:41:56.655Z,98061.75
2022-11-27T18:44:24.085Z,98059.13
2022-11-27T18:46:52.135Z,98058.16
2022-11-27T18:49:19.904Z,98057.56
2022-11-27T18:51:50.024Z,98054.31
2022-11-27T18:54:20.592Z,98052.59
2022-11-27T18:56:49.542Z,98052.91
2022-11-27T18:59:21.076Z,98054.59
2022-11-27T19:01:52.789Z,98044.22
2022-11-27T19:04:20.716Z,98048.25
2022-11-27T19:06:48.724Z,98039.13
2022-11-27T19:09:16.759Z,98039.59
2022-11-27T19:11:43.852Z,98038.97
2022-11-27T19:14:12.710Z,98032.78
2022-11-27T19:16:48.800Z,98025.94
2022-11-27T19:19:53.523Z,98029.31
2022-11-27T19:22:14.730Z,98020.22
2022-11-27T19:24:43.658Z,98024.69
2022-11-27T19:27:13.053Z,98018.53
2022-11-27T19:29:42.231Z,98012.97
2022-11-27T19:32:15.654Z,98014.69
2022-11-27T19:34:43.290Z,98013.31
2022-11-27T19:37:13.727Z,97999.41
2022-11-27T19:39:42.474Z,98006.97
2022-11-27T19:42:10.075Z,98009.25
2022-11-27T19:44:37.330Z,98012.34
2022-11-27T19:47:06.790Z,98002.44
2022-11-27T19:49:38.001Z,98000.75
2022-11-27T19:52:06.177Z,98003.06
2022-11-27T19:54:35.190Z,98010.19
2022-11-27T19:57:05.574Z,98001.81
2022-11-27T19:59:34.343Z,97996.25
2022-11-27T20:02:01.347Z,97984.66
2022-11-27T20:04:29.876Z,97975.81
2022-11-27T20:06:58.683Z,97968.41
2022-11-27T20:09:26.001Z,97960.69
2022-11-27T20:11:55.275Z,97976.94
2022-11-27T20:14:24.101Z,97974.31
2022-11-27T20:16:53.416Z,97968.91
2022-11-27T20:19:26.085Z,97966.59
2022-11-27T20:21:56.032Z,97954.53
2022-11-27T20:24:25.277Z,97956.56
2022-11-27T20:27:01.542Z,97950.84
2022-11-27T20:29:28.662Z,97955.47
2022-11-27T20:31:58.719Z,97953.91
2022-11-27T20:34:29.139Z,97954.88
2022-11-27T20:36:58.253Z,97953.78
2022-11-27T20:39:25.231Z,97946.69
2022-11-27T20:41:52.558Z,97939.06
2022-11-27T20:44:21.415Z,97930.59
2022-11-27T20:46:49.490Z,97920.50
2022-11-27T20:49:17.378Z,97929.81
2022-11-27T20:51:46.790Z,97938.16
2022-11-27T20:54:14.178Z,97929.50
2022-11-27T20:56:44.111Z,97927.03
2022-11-27T20:59:12.902Z,97923.75
2022-11-27T21:01:42.041Z,97922.69
2022-11-27T21:04:25.055Z,97929.44
2022-11-27T21:06:53.885Z,97928.81
2022-11-27T21:09:27.058Z,97918.28
2022-11-27T21:11:55.095Z,97910.97
2022-11-27T21:14:22.641Z,97906.34
2022-11-27T21:16:52.150Z,97902.34
2022-11-27T21:19:23.070Z,97898.41
2022-11-27T21:21:51.869Z,97904.28
2022-11-27T21:24:19.927Z,97907.09
2022-11-27T21:26:50.088Z,97905.66
2022-11-27T21:29:21.120Z,97903.94
2022-11-27T21:31:58.263Z,97900.09
2022-11-27T21:34:29.252Z,97889.13
2022-11-27T21:36:56.339Z,97885.09
2022-11-27T21:39:25.892Z,97892.19
2022-11-27T21:41:56.304Z,97888.75
2022-11-27T21:44:24.677Z,97889.84
2022-11-27T21:46:54.062Z,97882.22
2022-11-27T21:49:21.690Z,97878.84
2022-11-27T21:51:54.434Z,97873.59
2022-11-27T21:54:29.670Z,97875.91
2022-11-27T21:56:56.856Z,97865.38
2022-11-27T21:59:26.148Z,97856.69
2022-11-27T22:01:53.790Z,97852.56
2022-11-27T22:04:22.051Z,97851.50
2022-11-27T22:06:49.628Z,97856.88
2022-11-27T22:09:17.807Z,97841.72
2022-11-27T22:11:48.215Z,97821.63
2022-11-27T22:14:17.414Z,97830.31
2022-11-27T22:16:47.344Z,97817.63
2022-11-27T22:19:17.498Z,97836.56
2022-11-27T22:21:45.261Z,97835.69
2022-11-27T22:24:19.421Z,97838.56
2022-11-27T22:26:51.234Z,97845.50
2022-11-27T22:29:18.754Z,97839.00
2022-11-27T22:31:47.182Z,97828.78
2022-11-27T22:34:16.581Z,97834.19
2022-11-27T22:36:45.101Z,97824.75
2022-11-27T22:39:12.676Z,97824.47
2022-11-27T22:41:42.938Z,97830.31
2022-11-27T22:44:19.101Z,97825.34
2022-11-27T22:46:47.529Z,97832.47
2022-11-27T22:49:18.931Z,97827.47
2022-11-27T22:51:46.642Z,97816.06
2022-11-27T22:54:17.401Z,97817.28
2022-11-27T22:56:48.078Z,97818.06
2022-11-27T22:59:33.254Z,97823.16
2022-11-27T23:02:03.449Z,97825.47
2022-11-27T23:04:30.701Z,97821.91
2022-11-27T23:07:00.561Z,97821.72
2022-11-27T23:09:29.823Z,97813.19
2022-11-27T23:11:58.027Z,97811.94
2022-11-27T23:14:26.579Z,97813.47
2022-11-27T23:16:54.177Z,97804.16
2022-11-27T23:19:22.553Z,97811.59
2022-11-27T23:21:49.891Z,97804.28
2022-11-27T23:24:16.753Z,97808.41
2022-11-27T23:26:46.099Z,97800.06
2022-11-27T23:29:14.179Z,97811.50
2022-11-27T23:31:43.242Z,97802.19
2022-11-27T23:34:13.751Z,97793.50
2022-11-27T23:36:40.654Z,97793.63
2022-11-27T23:39:09.367Z,97799.00
2022-11-27T23:41:38.220Z,97789.13
2022-11-27T23:44:05.196Z,97788.63
2022-11-27T23:46:32.160Z,97790.66
2022-11-27T23:49:00.201Z,97781.81
2022-11-27T23:51:31.375Z,97779.81
2022-11-27T23:53:59.405Z,97787.19
2022-11-27T23:56:29.562Z,97776.03
2022-11-27T23:58:57.409Z,97774.81
